sensor_id;sensor_type;location;lat;lon;timestamp;temperature;humidity
18105;DHT22;9179;50.968;3.134;2023-04-03T00:01:42;3.00;99.90
18105;DHT22;9179;50.968;3.134;2023-04-03T00:04:10;2.90;99.90
18105;DHT22;9179;50.968;3.134;2023-04-03T00:06:37;2.90;99.90
18105;DHT22;9179;50.968;3.134;2023-04-03T00:09:03;2.90;99.90
18105;DHT22;9179;50.968;3.134;2023-04-03T00:11:30;2.90;99.90
18105;DHT22;9179;50.968;3.134;2023-04-03T00:13:57;2.90;99.90
18105;DHT22;9179;50.968;3.134;2023-04-03T00:16:24;2.90;99.90
18105;DHT22;9179;50.968;3.134;2023-04-03T00:18:53;3.00;99.90
18105;DHT22;9179;50.968;3.134;2023-04-03T00:21:20;3.10;99.90
18105;DHT22;9179;50.968;3.134;2023-04-03T00:23:46;3.20;99.90
18105;DHT22;9179;50.968;3.134;2023-04-03T00:26:13;3.20;99.90
18105;DHT22;9179;50.968;3.134;2023-04-03T00:28:40;3.20;99.90
18105;DHT22;9179;50.968;3.134;2023-04-03T00:31:07;3.10;99.90
18105;DHT22;9179;50.968;3.134;2023-04-03T00:33:35;3.20;99.90
18105;DHT22;9179;50.968;3.134;2023-04-03T00:36:07;3.20;99.90
18105;DHT22;9179;50.968;3.134;2023-04-03T00:38:34;3.10;99.90
18105;DHT22;9179;50.968;3.134;2023-04-03T00:41:01;3.00;99.90
18105;DHT22;9179;50.968;3.134;2023-04-03T00:43:29;3.00;99.90
18105;DHT22;9179;50.968;3.134;2023-04-03T00:45:57;3.00;99.90
18105;DHT22;9179;50.968;3.134;2023-04-03T00:48:27;3.00;99.90
18105;DHT22;9179;50.968;3.134;2023-04-03T00:50:55;3.00;99.90
18105;DHT22;9179;50.968;3.134;2023-04-03T00:53:27;3.00;99.90
18105;DHT22;9179;50.968;3.134;2023-04-03T00:55:56;3.00;99.90
18105;DHT22;9179;50.968;3.134;2023-04-03T00:58:28;3.00;99.90
18105;DHT22;9179;50.968;3.134;2023-04-03T01:00:58;2.90;99.90
18105;DHT22;9179;50.968;3.134;2023-04-03T01:03:25;2.80;99.90
18105;DHT22;9179;50.968;3.134;2023-04-03T01:05:52;2.80;99.90
18105;DHT22;9179;50.968;3.134;2023-04-03T01:08:19;2.80;99.90
18105;DHT22;9179;50.968;3.134;2023-04-03T01:10:47;2.80;99.90
18105;DHT22;9179;50.968;3.134;2023-04-03T01:13:21;2.70;99.90
18105;DHT22;9179;50.968;3.134;2023-04-03T01:15:48;2.70;99.90
18105;DHT22;9179;50.968;3.134;2023-04-03T01:18:15;2.80;99.90
18105;DHT22;9179;50.968;3.134;2023-04-03T01:23:58;2.80;99.90
18105;DHT22;9179;50.968;3.134;2023-04-03T01:26:28;2.80;99.90
18105;DHT22;9179;50.968;3.134;2023-04-03T01:28:55;2.80;99.90
18105;DHT22;9179;50.968;3.134;2023-04-03T01:31:25;2.80;99.90
18105;DHT22;9179;50.968;3.134;2023-04-03T01:33:55;2.80;99.90
18105;DHT22;9179;50.968;3.134;2023-04-03T01:36:25;2.80;99.90
18105;DHT22;9179;50.968;3.134;2023-04-03T01:38:52;2.80;99.90
18105;DHT22;9179;50.968;3.134;2023-04-03T01:41:19;2.80;99.90
18105;DHT22;9179;50.968;3.134;2023-04-03T01:43:47;2.80;99.90
18105;DHT22;9179;50.968;3.134;2023-04-03T01:46:15;2.80;99.90
18105;DHT22;9179;50.968;3.134;2023-04-03T01:48:42;2.80;99.90
18105;DHT22;9179;50.968;3.134;2023-04-03T01:51:11;2.80;99.90
18105;DHT22;9179;50.968;3.134;2023-04-03T01:53:38;2.70;99.90
18105;DHT22;9179;50.968;3.134;2023-04-03T01:56:06;2.70;99.90
18105;DHT22;9179;50.968;3.134;2023-04-03T01:58:33;2.70;99.90
18105;DHT22;9179;50.968;3.134;2023-04-03T02:01:00;2.70;99.90
18105;DHT22;9179;50.968;3.134;2023-04-03T02:03:27;2.70;99.90
18105;DHT22;9179;50.968;3.134;2023-04-03T02:05:54;2.70;99.90
18105;DHT22;9179;50.968;3.134;2023-04-03T02:08:23;2.60;99.90
18105;DHT22;9179;50.968;3.134;2023-04-03T02:10:50;2.60;99.90
18105;DHT22;9179;50.968;3.134;2023-04-03T02:13:18;2.60;99.90
18105;DHT22;9179;50.968;3.134;2023-04-03T02:15:45;2.50;99.90
18105;DHT22;9179;50.968;3.134;2023-04-03T02:18:13;2.50;99.90
18105;DHT22;9179;50.968;3.134;2023-04-03T02:20:40;2.50;99.90
18105;DHT22;9179;50.968;3.134;2023-04-03T02:23:07;2.50;99.90
18105;DHT22;9179;50.968;3.134;2023-04-03T02:25:35;2.50;99.90
18105;DHT22;9179;50.968;3.134;2023-04-03T02:28:02;2.60;99.90
18105;DHT22;9179;50.968;3.134;2023-04-03T02:30:29;2.60;99.90
18105;DHT22;9179;50.968;3.134;2023-04-03T02:32:56;2.60;99.90
18105;DHT22;9179;50.968;3.134;2023-04-03T02:35:23;2.60;99.90
18105;DHT22;9179;50.968;3.134;2023-04-03T02:37:50;2.60;99.90
18105;DHT22;9179;50.968;3.134;2023-04-03T02:40:17;2.60;99.90
18105;DHT22;9179;50.968;3.134;2023-04-03T02:42:46;2.50;99.90
18105;DHT22;9179;50.968;3.134;2023-04-03T02:45:13;2.50;99.90
18105;DHT22;9179;50.968;3.134;2023-04-03T02:47:40;2.50;99.90
18105;DHT22;9179;50.968;3.134;2023-04-03T02:50:07;2.60;99.90
18105;DHT22;9179;50.968;3.134;2023-04-03T02:52:34;2.60;99.90
18105;DHT22;9179;50.968;3.134;2023-04-03T02:55:01;2.60;99.90
18105;DHT22;9179;50.968;3.134;2023-04-03T02:57:29;2.70;99.90
18105;DHT22;9179;50.968;3.134;2023-04-03T02:59:57;2.70;99.90
18105;DHT22;9179;50.968;3.134;2023-04-03T03:02:24;2.70;99.90
18105;DHT22;9179;50.968;3.134;2023-04-03T03:04:51;2.70;99.90
18105;DHT22;9179;50.968;3.134;2023-04-03T03:07:18;2.70;99.90
18105;DHT22;9179;50.968;3.134;2023-04-03T03:09:45;2.80;99.90
18105;DHT22;9179;50.968;3.134;2023-04-03T03:12:12;2.90;99.90
18105;DHT22;9179;50.968;3.134;2023-04-03T03:14:39;2.90;99.90
18105;DHT22;9179;50.968;3.134;2023-04-03T03:17:07;2.90;99.90
18105;DHT22;9179;50.968;3.134;2023-04-03T03:19:34;2.80;99.90
18105;DHT22;9179;50.968;3.134;2023-04-03T03:22:01;2.80;99.90
18105;DHT22;9179;50.968;3.134;2023-04-03T03:24:28;2.80;99.90
18105;DHT22;9179;50.968;3.134;2023-04-03T03:26:55;2.80;99.90
18105;DHT22;9179;50.968;3.134;2023-04-03T03:29:22;2.80;99.90
18105;DHT22;9179;50.968;3.134;2023-04-03T03:31:49;2.90;99.90
18105;DHT22;9179;50.968;3.134;2023-04-03T03:34:17;2.90;99.90
18105;DHT22;9179;50.968;3.134;2023-04-03T03:36:44;3.10;99.90
18105;DHT22;9179;50.968;3.134;2023-04-03T03:39:11;3.10;99.90
18105;DHT22;9179;50.968;3.134;2023-04-03T03:41:38;3.10;99.90
18105;DHT22;9179;50.968;3.134;2023-04-03T03:44:05;3.10;99.90
18105;DHT22;9179;50.968;3.134;2023-04-03T03:46:32;3.20;99.90
18105;DHT22;9179;50.968;3.134;2023-04-03T03:48:59;3.20;99.90
18105;DHT22;9179;50.968;3.134;2023-04-03T03:51:28;3.40;99.90
18105;DHT22;9179;50.968;3.134;2023-04-03T03:53:54;3.60;99.90
18105;DHT22;9179;50.968;3.134;2023-04-03T03:56:21;3.60;99.90
18105;DHT22;9179;50.968;3.134;2023-04-03T03:58:48;3.60;99.90
18105;DHT22;9179;50.968;3.134;2023-04-03T04:01:16;3.70;99.90
18105;DHT22;9179;50.968;3.134;2023-04-03T04:03:43;3.80;99.90
18105;DHT22;9179;50.968;3.134;2023-04-03T04:06:10;3.80;99.90
18105;DHT22;9179;50.968;3.134;2023-04-03T04:08:39;3.90;99.90
18105;DHT22;9179;50.968;3.134;2023-04-03T04:11:06;3.80;99.90
18105;DHT22;9179;50.968;3.134;2023-04-03T04:13:33;3.70;99.90
18105;DHT22;9179;50.968;3.134;2023-04-03T04:16:01;3.70;99.90
18105;DHT22;9179;50.968;3.134;2023-04-03T04:18:28;3.60;99.90
18105;DHT22;9179;50.968;3.134;2023-04-03T04:20:55;3.50;99.90
18105;DHT22;9179;50.968;3.134;2023-04-03T04:23:22;3.50;99.90
18105;DHT22;9179;50.968;3.134;2023-04-03T04:25:51;3.50;99.90
18105;DHT22;9179;50.968;3.134;2023-04-03T04:28:18;3.50;99.90
18105;DHT22;9179;50.968;3.134;2023-04-03T04:30:45;3.50;99.90
18105;DHT22;9179;50.968;3.134;2023-04-03T04:33:12;3.60;99.90
18105;DHT22;9179;50.968;3.134;2023-04-03T04:35:42;3.60;99.90
18105;DHT22;9179;50.968;3.134;2023-04-03T04:38:09;3.60;99.90
18105;DHT22;9179;50.968;3.134;2023-04-03T04:40:36;3.60;99.90
18105;DHT22;9179;50.968;3.134;2023-04-03T04:43:04;3.60;99.90
18105;DHT22;9179;50.968;3.134;2023-04-03T04:45:31;3.50;99.90
18105;DHT22;9179;50.968;3.134;2023-04-03T04:47:58;3.50;99.90
18105;DHT22;9179;50.968;3.134;2023-04-03T04:50:26;3.50;99.90
18105;DHT22;9179;50.968;3.134;2023-04-03T04:52:52;3.50;99.90
18105;DHT22;9179;50.968;3.134;2023-04-03T04:55:19;3.50;99.90
18105;DHT22;9179;50.968;3.134;2023-04-03T04:57:46;3.50;99.90
18105;DHT22;9179;50.968;3.134;2023-04-03T05:00:16;3.50;99.90
18105;DHT22;9179;50.968;3.134;2023-04-03T05:02:43;3.50;99.90
18105;DHT22;9179;50.968;3.134;2023-04-03T05:05:10;3.50;99.90
18105;DHT22;9179;50.968;3.134;2023-04-03T05:07:37;3.60;99.90
18105;DHT22;9179;50.968;3.134;2023-04-03T05:10:05;3.60;99.90
18105;DHT22;9179;50.968;3.134;2023-04-03T05:12:32;3.60;99.90
18105;DHT22;9179;50.968;3.134;2023-04-03T05:15:00;3.60;99.90
18105;DHT22;9179;50.968;3.134;2023-04-03T05:17:28;3.70;99.90
18105;DHT22;9179;50.968;3.134;2023-04-03T05:19:55;3.70;99.90
18105;DHT22;9179;50.968;3.134;2023-04-03T05:22:22;3.80;99.90
18105;DHT22;9179;50.968;3.134;2023-04-03T05:24:49;3.80;99.90
18105;DHT22;9179;50.968;3.134;2023-04-03T05:27:16;3.80;99.90
18105;DHT22;9179;50.968;3.134;2023-04-03T05:29:43;3.90;99.90
18105;DHT22;9179;50.968;3.134;2023-04-03T05:32:10;4.00;99.90
18105;DHT22;9179;50.968;3.134;2023-04-03T05:34:38;4.10;99.90
18105;DHT22;9179;50.968;3.134;2023-04-03T05:37:05;4.10;99.90
18105;DHT22;9179;50.968;3.134;2023-04-03T05:39:33;4.10;99.90
18105;DHT22;9179;50.968;3.134;2023-04-03T05:42:00;4.20;99.90
18105;DHT22;9179;50.968;3.134;2023-04-03T05:44:27;4.20;99.90
18105;DHT22;9179;50.968;3.134;2023-04-03T05:46:54;4.20;99.90
18105;DHT22;9179;50.968;3.134;2023-04-03T05:49:21;4.30;99.90
18105;DHT22;9179;50.968;3.134;2023-04-03T05:51:49;4.40;99.90
18105;DHT22;9179;50.968;3.134;2023-04-03T05:54:19;4.40;99.90
18105;DHT22;9179;50.968;3.134;2023-04-03T05:56:48;4.50;99.90
18105;DHT22;9179;50.968;3.134;2023-04-03T05:59:15;4.60;99.90
18105;DHT22;9179;50.968;3.134;2023-04-03T06:01:42;4.70;99.90
18105;DHT22;9179;50.968;3.134;2023-04-03T06:04:10;4.80;99.90
18105;DHT22;9179;50.968;3.134;2023-04-03T06:06:45;4.90;99.90
18105;DHT22;9179;50.968;3.134;2023-04-03T06:09:15;5.00;99.90
18105;DHT22;9179;50.968;3.134;2023-04-03T06:11:43;5.00;99.90
18105;DHT22;9179;50.968;3.134;2023-04-03T06:14:10;5.10;99.90
18105;DHT22;9179;50.968;3.134;2023-04-03T06:16:37;5.20;99.90
18105;DHT22;9179;50.968;3.134;2023-04-03T06:19:04;5.30;99.90
18105;DHT22;9179;50.968;3.134;2023-04-03T06:21:32;5.50;99.90
18105;DHT22;9179;50.968;3.134;2023-04-03T06:23:59;5.70;99.90
18105;DHT22;9179;50.968;3.134;2023-04-03T06:26:28;5.90;99.90
18105;DHT22;9179;50.968;3.134;2023-04-03T06:28:55;6.10;99.90
18105;DHT22;9179;50.968;3.134;2023-04-03T06:31:22;6.30;99.90
18105;DHT22;9179;50.968;3.134;2023-04-03T06:33:49;6.70;99.90
18105;DHT22;9179;50.968;3.134;2023-04-03T06:36:18;7.30;99.90
18105;DHT22;9179;50.968;3.134;2023-04-03T06:38:47;8.10;99.90
18105;DHT22;9179;50.968;3.134;2023-04-03T06:41:14;9.00;99.90
18105;DHT22;9179;50.968;3.134;2023-04-03T06:43:43;9.40;99.90
18105;DHT22;9179;50.968;3.134;2023-04-03T06:46:14;10.10;99.90
18105;DHT22;9179;50.968;3.134;2023-04-03T06:48:41;10.70;99.90
18105;DHT22;9179;50.968;3.134;2023-04-03T06:51:15;11.00;99.90
18105;DHT22;9179;50.968;3.134;2023-04-03T06:53:43;11.30;99.90
18105;DHT22;9179;50.968;3.134;2023-04-03T06:56:11;11.40;99.90
18105;DHT22;9179;50.968;3.134;2023-04-03T06:58:38;11.60;99.90
18105;DHT22;9179;50.968;3.134;2023-04-03T07:01:06;11.90;99.90
18105;DHT22;9179;50.968;3.134;2023-04-03T07:03:33;12.10;99.90
18105;DHT22;9179;50.968;3.134;2023-04-03T07:06:01;12.30;99.90
18105;DHT22;9179;50.968;3.134;2023-04-03T07:08:28;12.60;99.90
18105;DHT22;9179;50.968;3.134;2023-04-03T07:10:55;12.60;99.90
18105;DHT22;9179;50.968;3.134;2023-04-03T07:13:27;12.40;99.90
18105;DHT22;9179;50.968;3.134;2023-04-03T07:15:54;12.60;99.90
18105;DHT22;9179;50.968;3.134;2023-04-03T07:18:22;12.80;99.90
18105;DHT22;9179;50.968;3.134;2023-04-03T07:20:49;12.90;99.90
18105;DHT22;9179;50.968;3.134;2023-04-03T07:23:16;13.60;99.90
18105;DHT22;9179;50.968;3.134;2023-04-03T07:25:44;14.20;99.90
18105;DHT22;9179;50.968;3.134;2023-04-03T07:28:11;14.60;99.90
18105;DHT22;9179;50.968;3.134;2023-04-03T07:30:49;14.90;99.90
18105;DHT22;9179;50.968;3.134;2023-04-03T07:33:19;15.20;99.90
18105;DHT22;9179;50.968;3.134;2023-04-03T07:35:48;15.30;99.90
18105;DHT22;9179;50.968;3.134;2023-04-03T07:38:15;15.20;99.90
18105;DHT22;9179;50.968;3.134;2023-04-03T07:40:46;15.00;99.90
18105;DHT22;9179;50.968;3.134;2023-04-03T07:43:14;15.40;99.90
18105;DHT22;9179;50.968;3.134;2023-04-03T07:45:41;15.50;99.90
18105;DHT22;9179;50.968;3.134;2023-04-03T07:48:09;14.60;99.90
18105;DHT22;9179;50.968;3.134;2023-04-03T07:50:36;13.90;99.90
18105;DHT22;9179;50.968;3.134;2023-04-03T07:53:04;13.70;99.90
18105;DHT22;9179;50.968;3.134;2023-04-03T07:55:31;14.20;99.90
18105;DHT22;9179;50.968;3.134;2023-04-03T07:57:58;14.60;99.90
18105;DHT22;9179;50.968;3.134;2023-04-03T08:00:25;14.80;99.90
18105;DHT22;9179;50.968;3.134;2023-04-03T08:02:52;14.90;99.90
18105;DHT22;9179;50.968;3.134;2023-04-03T08:05:20;15.00;99.90
18105;DHT22;9179;50.968;3.134;2023-04-03T08:07:47;15.50;99.90
18105;DHT22;9179;50.968;3.134;2023-04-03T08:10:16;15.90;99.90
18105;DHT22;9179;50.968;3.134;2023-04-03T08:12:46;15.60;99.90
18105;DHT22;9179;50.968;3.134;2023-04-03T08:15:13;15.80;99.90
18105;DHT22;9179;50.968;3.134;2023-04-03T08:17:41;16.10;99.90
18105;DHT22;9179;50.968;3.134;2023-04-03T08:20:10;16.20;99.90
18105;DHT22;9179;50.968;3.134;2023-04-03T08:22:37;16.70;99.90
18105;DHT22;9179;50.968;3.134;2023-04-03T08:25:05;16.70;99.90
18105;DHT22;9179;50.968;3.134;2023-04-03T08:27:33;16.60;99.90
18105;DHT22;9179;50.968;3.134;2023-04-03T08:30:00;16.20;99.90
18105;DHT22;9179;50.968;3.134;2023-04-03T08:32:27;16.20;99.90
18105;DHT22;9179;50.968;3.134;2023-04-03T08:34:54;16.60;99.90
18105;DHT22;9179;50.968;3.134;2023-04-03T08:37:21;16.60;99.90
18105;DHT22;9179;50.968;3.134;2023-04-03T08:39:48;16.40;99.90
18105;DHT22;9179;50.968;3.134;2023-04-03T08:42:23;16.00;99.90
18105;DHT22;9179;50.968;3.134;2023-04-03T08:45:00;16.00;99.90
18105;DHT22;9179;50.968;3.134;2023-04-03T08:47:33;16.50;99.90
18105;DHT22;9179;50.968;3.134;2023-04-03T08:50:05;16.10;99.90
18105;DHT22;9179;50.968;3.134;2023-04-03T08:52:38;16.20;99.90
18105;DHT22;9179;50.968;3.134;2023-04-03T08:55:20;16.10;99.90
18105;DHT22;9179;50.968;3.134;2023-04-03T08:57:53;15.90;99.90
18105;DHT22;9179;50.968;3.134;2023-04-03T09:00:28;16.20;99.90
18105;DHT22;9179;50.968;3.134;2023-04-03T09:02:56;16.60;99.90
18105;DHT22;9179;50.968;3.134;2023-04-03T09:05:32;16.70;99.90
18105;DHT22;9179;50.968;3.134;2023-04-03T09:08:05;16.70;99.90
18105;DHT22;9179;50.968;3.134;2023-04-03T09:10:37;16.60;99.90
18105;DHT22;9179;50.968;3.134;2023-04-03T09:13:10;16.70;99.90
18105;DHT22;9179;50.968;3.134;2023-04-03T09:15:40;16.70;99.90
18105;DHT22;9179;50.968;3.134;2023-04-03T09:18:13;16.20;99.90
18105;DHT22;9179;50.968;3.134;2023-04-03T09:20:46;15.60;99.40
18105;DHT22;9179;50.968;3.134;2023-04-03T09:23:20;15.40;99.90
18105;DHT22;9179;50.968;3.134;2023-04-03T09:25:50;16.00;99.90
18105;DHT22;9179;50.968;3.134;2023-04-03T09:28:19;16.30;99.90
18105;DHT22;9179;50.968;3.134;2023-04-03T09:30:48;16.50;99.90
18105;DHT22;9179;50.968;3.134;2023-04-03T09:33:15;16.10;99.90
18105;DHT22;9179;50.968;3.134;2023-04-03T09:35:43;16.30;99.90
18105;DHT22;9179;50.968;3.134;2023-04-03T09:38:19;16.90;99.90
18105;DHT22;9179;50.968;3.134;2023-04-03T09:40:48;16.60;99.30
18105;DHT22;9179;50.968;3.134;2023-04-03T09:43:25;16.20;99.90
18105;DHT22;9179;50.968;3.134;2023-04-03T09:45:54;15.70;98.80
18105;DHT22;9179;50.968;3.134;2023-04-03T09:48:23;16.10;99.90
18105;DHT22;9179;50.968;3.134;2023-04-03T09:50:57;16.00;99.20
18105;DHT22;9179;50.968;3.134;2023-04-03T09:53:31;16.50;99.90
18105;DHT22;9179;50.968;3.134;2023-04-03T09:55:59;16.90;99.90
18105;DHT22;9179;50.968;3.134;2023-04-03T09:58:28;16.80;98.20
18105;DHT22;9179;50.968;3.134;2023-04-03T10:00:59;17.20;98.80
18105;DHT22;9179;50.968;3.134;2023-04-03T10:03:30;17.70;97.50
18105;DHT22;9179;50.968;3.134;2023-04-03T10:05:57;17.00;96.30
18105;DHT22;9179;50.968;3.134;2023-04-03T10:08:28;16.60;95.60
18105;DHT22;9179;50.968;3.134;2023-04-03T10:11:13;16.40;96.80
18105;DHT22;9179;50.968;3.134;2023-04-03T10:13:55;16.80;95.70
18105;DHT22;9179;50.968;3.134;2023-04-03T10:16:29;16.40;96.20
18105;DHT22;9179;50.968;3.134;2023-04-03T10:19:10;16.90;97.20
18105;DHT22;9179;50.968;3.134;2023-04-03T10:21:46;17.20;95.40
18105;DHT22;9179;50.968;3.134;2023-04-03T10:24:19;16.70;95.10
18105;DHT22;9179;50.968;3.134;2023-04-03T10:26:56;16.80;95.20
18105;DHT22;9179;50.968;3.134;2023-04-03T10:29:39;16.80;94.10
18105;DHT22;9179;50.968;3.134;2023-04-03T10:32:24;17.00;94.00
18105;DHT22;9179;50.968;3.134;2023-04-03T10:35:00;16.60;93.20
18105;DHT22;9179;50.968;3.134;2023-04-03T10:37:33;16.40;93.80
18105;DHT22;9179;50.968;3.134;2023-04-03T10:40:20;16.80;94.50
18105;DHT22;9179;50.968;3.134;2023-04-03T10:42:53;16.60;94.80
18105;DHT22;9179;50.968;3.134;2023-04-03T10:45:26;16.90;95.30
18105;DHT22;9179;50.968;3.134;2023-04-03T10:48:03;16.90;94.30
18105;DHT22;9179;50.968;3.134;2023-04-03T10:50:39;16.80;93.40
18105;DHT22;9179;50.968;3.134;2023-04-03T10:53:17;16.70;93.90
18105;DHT22;9179;50.968;3.134;2023-04-03T10:55:51;16.70;94.40
18105;DHT22;9179;50.968;3.134;2023-04-03T10:58:26;17.40;94.40
18105;DHT22;9179;50.968;3.134;2023-04-03T11:00:59;17.50;94.20
18105;DHT22;9179;50.968;3.134;2023-04-03T11:03:35;16.80;92.20
18105;DHT22;9179;50.968;3.134;2023-04-03T11:06:07;16.40;92.70
18105;DHT22;9179;50.968;3.134;2023-04-03T11:08:39;16.40;92.40
18105;DHT22;9179;50.968;3.134;2023-04-03T11:11:13;16.50;91.40
18105;DHT22;9179;50.968;3.134;2023-04-03T11:13:43;16.10;91.60
18105;DHT22;9179;50.968;3.134;2023-04-03T11:16:15;16.40;93.10
18105;DHT22;9179;50.968;3.134;2023-04-03T11:18:49;16.60;92.50
18105;DHT22;9179;50.968;3.134;2023-04-03T11:21:20;16.40;92.00
18105;DHT22;9179;50.968;3.134;2023-04-03T11:23:49;16.80;92.40
18105;DHT22;9179;50.968;3.134;2023-04-03T11:26:19;16.50;90.50
18105;DHT22;9179;50.968;3.134;2023-04-03T11:28:52;16.50;90.90
18105;DHT22;9179;50.968;3.134;2023-04-03T11:34:19;17.20;90.70
18105;DHT22;9179;50.968;3.134;2023-04-03T11:36:49;17.30;90.20
18105;DHT22;9179;50.968;3.134;2023-04-03T11:39:22;17.30;90.10
18105;DHT22;9179;50.968;3.134;2023-04-03T11:41:50;17.70;90.60
18105;DHT22;9179;50.968;3.134;2023-04-03T11:44:31;17.30;88.90
18105;DHT22;9179;50.968;3.134;2023-04-03T11:47:01;17.20;89.10
18105;DHT22;9179;50.968;3.134;2023-04-03T11:50:03;16.60;86.10
18105;DHT22;9179;50.968;3.134;2023-04-03T11:52:56;16.70;88.40
18105;DHT22;9179;50.968;3.134;2023-04-03T11:58:37;16.60;87.90
18105;DHT22;9179;50.968;3.134;2023-04-03T12:01:06;16.70;89.70
18105;DHT22;9179;50.968;3.134;2023-04-03T12:07:08;17.10;88.70
18105;DHT22;9179;50.968;3.134;2023-04-03T12:10:13;17.40;86.90
18105;DHT22;9179;50.968;3.134;2023-04-03T12:12:42;17.20;85.40
18105;DHT22;9179;50.968;3.134;2023-04-03T12:21:16;17.00;82.90
18105;DHT22;9179;50.968;3.134;2023-04-03T12:24:04;16.70;83.10
18105;DHT22;9179;50.968;3.134;2023-04-03T12:26:36;16.80;84.90
18105;DHT22;9179;50.968;3.134;2023-04-03T12:29:14;16.90;86.30
18105;DHT22;9179;50.968;3.134;2023-04-03T12:31:49;17.40;86.60
18105;DHT22;9179;50.968;3.134;2023-04-03T12:34:35;17.70;82.00
18105;DHT22;9179;50.968;3.134;2023-04-03T12:37:14;17.50;82.50
18105;DHT22;9179;50.968;3.134;2023-04-03T12:39:54;17.90;83.30
18105;DHT22;9179;50.968;3.134;2023-04-03T12:42:37;18.40;80.30
18105;DHT22;9179;50.968;3.134;2023-04-03T12:45:15;18.10;80.70
18105;DHT22;9179;50.968;3.134;2023-04-03T12:47:44;17.80;78.50
18105;DHT22;9179;50.968;3.134;2023-04-03T12:50:19;17.80;80.00
18105;DHT22;9179;50.968;3.134;2023-04-03T12:52:54;18.10;79.70
18105;DHT22;9179;50.968;3.134;2023-04-03T12:55:23;18.50;78.30
18105;DHT22;9179;50.968;3.134;2023-04-03T12:57:50;18.80;77.90
18105;DHT22;9179;50.968;3.134;2023-04-03T13:00:26;18.80;74.10
18105;DHT22;9179;50.968;3.134;2023-04-03T13:02:54;18.70;74.70
18105;DHT22;9179;50.968;3.134;2023-04-03T13:05:22;18.80;74.80
18105;DHT22;9179;50.968;3.134;2023-04-03T13:07:52;18.80;73.10
18105;DHT22;9179;50.968;3.134;2023-04-03T13:10:24;18.70;70.40
18105;DHT22;9179;50.968;3.134;2023-04-03T13:12:52;19.10;69.50
18105;DHT22;9179;50.968;3.134;2023-04-03T13:15:21;19.10;69.70
18105;DHT22;9179;50.968;3.134;2023-04-03T13:17:50;19.40;69.70
18105;DHT22;9179;50.968;3.134;2023-04-03T13:20:22;19.90;68.50
18105;DHT22;9179;50.968;3.134;2023-04-03T13:22:54;19.90;68.00
18105;DHT22;9179;50.968;3.134;2023-04-03T13:25:25;20.40;68.80
18105;DHT22;9179;50.968;3.134;2023-04-03T13:27:54;20.90;67.80
18105;DHT22;9179;50.968;3.134;2023-04-03T13:30:26;20.90;66.10
18105;DHT22;9179;50.968;3.134;2023-04-03T13:32:54;21.40;66.60
18105;DHT22;9179;50.968;3.134;2023-04-03T13:35:29;21.40;65.80
18105;DHT22;9179;50.968;3.134;2023-04-03T13:37:58;21.70;65.60
18105;DHT22;9179;50.968;3.134;2023-04-03T13:40:27;22.10;64.20
18105;DHT22;9179;50.968;3.134;2023-04-03T13:43:03;23.00;64.50
18105;DHT22;9179;50.968;3.134;2023-04-03T13:45:31;22.90;60.50
18105;DHT22;9179;50.968;3.134;2023-04-03T13:48:11;22.50;60.30
18105;DHT22;9179;50.968;3.134;2023-04-03T13:50:58;22.30;59.10
18105;DHT22;9179;50.968;3.134;2023-04-03T13:53:27;22.50;59.90
18105;DHT22;9179;50.968;3.134;2023-04-03T13:56:07;22.70;59.90
18105;DHT22;9179;50.968;3.134;2023-04-03T13:58:36;22.60;58.20
18105;DHT22;9179;50.968;3.134;2023-04-03T14:01:14;22.00;58.00
18105;DHT22;9179;50.968;3.134;2023-04-03T14:03:45;22.60;57.90
18105;DHT22;9179;50.968;3.134;2023-04-03T14:06:15;22.90;57.90
18105;DHT22;9179;50.968;3.134;2023-04-03T14:08:43;23.50;57.20
18105;DHT22;9179;50.968;3.134;2023-04-03T14:11:17;24.00;57.00
18105;DHT22;9179;50.968;3.134;2023-04-03T14:13:47;23.10;54.60
18105;DHT22;9179;50.968;3.134;2023-04-03T14:16:15;22.70;56.10
18105;DHT22;9179;50.968;3.134;2023-04-03T14:18:43;23.30;56.10
18105;DHT22;9179;50.968;3.134;2023-04-03T14:21:12;23.20;53.90
18105;DHT22;9179;50.968;3.134;2023-04-03T14:23:39;23.20;54.70
18105;DHT22;9179;50.968;3.134;2023-04-03T14:26:11;23.70;54.70
18105;DHT22;9179;50.968;3.134;2023-04-03T14:28:40;24.10;53.80
18105;DHT22;9179;50.968;3.134;2023-04-03T14:31:07;24.50;52.70
18105;DHT22;9179;50.968;3.134;2023-04-03T14:33:34;24.10;52.50
18105;DHT22;9179;50.968;3.134;2023-04-03T14:36:05;23.70;52.30
18105;DHT22;9179;50.968;3.134;2023-04-03T14:38:37;24.40;53.10
18105;DHT22;9179;50.968;3.134;2023-04-03T14:41:04;25.00;51.60
18105;DHT22;9179;50.968;3.134;2023-04-03T14:43:31;24.90;52.50
18105;DHT22;9179;50.968;3.134;2023-04-03T14:46:00;24.50;50.80
18105;DHT22;9179;50.968;3.134;2023-04-03T14:48:27;24.30;51.80
18105;DHT22;9179;50.968;3.134;2023-04-03T14:50:55;25.30;51.00
18105;DHT22;9179;50.968;3.134;2023-04-03T14:53:22;25.70;50.90
18105;DHT22;9179;50.968;3.134;2023-04-03T14:55:51;25.90;49.60
18105;DHT22;9179;50.968;3.134;2023-04-03T14:58:20;25.70;49.50
18105;DHT22;9179;50.968;3.134;2023-04-03T15:00:47;25.80;49.40
18105;DHT22;9179;50.968;3.134;2023-04-03T15:03:17;25.20;48.40
18105;DHT22;9179;50.968;3.134;2023-04-03T15:05:46;24.30;49.20
18105;DHT22;9179;50.968;3.134;2023-04-03T15:08:19;24.70;49.30
18105;DHT22;9179;50.968;3.134;2023-04-03T15:10:47;24.70;48.70
18105;DHT22;9179;50.968;3.134;2023-04-03T15:13:14;24.70;48.20
18105;DHT22;9179;50.968;3.134;2023-04-03T15:15:41;25.00;47.80
18105;DHT22;9179;50.968;3.134;2023-04-03T15:18:16;25.00;47.80
18105;DHT22;9179;50.968;3.134;2023-04-03T15:20:44;24.40;47.10
18105;DHT22;9179;50.968;3.134;2023-04-03T15:23:12;24.90;46.80
18105;DHT22;9179;50.968;3.134;2023-04-03T15:25:41;25.40;46.20
18105;DHT22;9179;50.968;3.134;2023-04-03T15:28:09;25.50;45.60
18105;DHT22;9179;50.968;3.134;2023-04-03T15:30:42;25.00;45.40
18105;DHT22;9179;50.968;3.134;2023-04-03T15:33:09;24.20;45.90
18105;DHT22;9179;50.968;3.134;2023-04-03T15:35:37;23.50;47.60
18105;DHT22;9179;50.968;3.134;2023-04-03T15:38:04;23.80;47.10
18105;DHT22;9179;50.968;3.134;2023-04-03T15:40:31;23.80;47.40
18105;DHT22;9179;50.968;3.134;2023-04-03T15:42:58;24.00;47.70
18105;DHT22;9179;50.968;3.134;2023-04-03T15:45:26;23.30;47.70
18105;DHT22;9179;50.968;3.134;2023-04-03T15:47:55;20.50;51.40
18105;DHT22;9179;50.968;3.134;2023-04-03T15:50:22;17.90;55.00
18105;DHT22;9179;50.968;3.134;2023-04-03T15:52:51;17.70;56.80
18105;DHT22;9179;50.968;3.134;2023-04-03T15:55:20;18.20;56.20
18105;DHT22;9179;50.968;3.134;2023-04-03T15:57:48;20.90;53.60
18105;DHT22;9179;50.968;3.134;2023-04-03T16:00:15;23.60;49.10
18105;DHT22;9179;50.968;3.134;2023-04-03T16:02:43;25.20;47.80
18105;DHT22;9179;50.968;3.134;2023-04-03T16:05:11;25.50;46.50
18105;DHT22;9179;50.968;3.134;2023-04-03T16:07:38;26.60;46.10
18105;DHT22;9179;50.968;3.134;2023-04-03T16:10:09;25.80;44.80
18105;DHT22;9179;50.968;3.134;2023-04-03T16:12:36;25.00;45.30
18105;DHT22;9179;50.968;3.134;2023-04-03T16:15:05;24.50;45.90
18105;DHT22;9179;50.968;3.134;2023-04-03T16:17:33;23.10;47.20
18105;DHT22;9179;50.968;3.134;2023-04-03T16:20:01;22.60;48.00
18105;DHT22;9179;50.968;3.134;2023-04-03T16:22:29;22.60;48.40
18105;DHT22;9179;50.968;3.134;2023-04-03T16:24:56;23.00;47.50
18105;DHT22;9179;50.968;3.134;2023-04-03T16:27:25;24.70;46.50